Time,TemperatureF,DewpointF,PressureIn,WindDirection,WindDirectionDegrees,WindSpeedMPH,WindSpeedGustMPH,Humidity,HourlyPrecipIn,Conditions,Clouds,dailyrainin,SolarRadiationWatts/m^2,SoftwareType,DateUTC
2013-02-15 00:01:00,35.9,31.2,30.05,SSW,209,0.0,0.0,83,0.00,FEW,,0.00,0.0,WeatherDisplay:10.37,2013-02-15 05:01:00,
2013-02-15 00:06:00,35.8,31.1,30.05,SSW,209,0.0,0.0,83,0.00,FEW,,0.00,0.0,WeatherDisplay:10.37,2013-02-15 05:06:00,
2013-02-15 00:11:00,35.6,31.2,30.05,SSW,209,0.0,0.0,84,0.00,FEW,,0.00,0.0,WeatherDisplay:10.37,2013-02-15 05:11:00,
2013-02-15 00:16:00,35.5,31.1,30.05,SSW,209,0.0,0.0,84,0.00,FEW,,0.00,0.0,WeatherDisplay:10.37,2013-02-15 05:16:00,
2013-02-15 00:21:00,35.3,30.9,30.06,SSW,209,0.0,0.0,84,0.00,FEW,,0.00,0.0,WeatherDisplay:10.37,2013-02-15 05:21:00,
2013-02-15 00:26:00,35.3,30.9,30.06,SSW,209,0.0,0.0,84,0.00,FEW,,0.00,0.0,WeatherDisplay:10.37,2013-02-15 05:26:00,
2013-02-15 00:31:00,35.2,31.1,30.06,SSW,209,0.0,0.0,85,0.00,FEW,,0.00,0.0,WeatherDisplay:10.37,2013-02-15 05:31:00,
2013-02-15 00:36:00,35.0,30.9,30.06,SSW,209,0.0,0.0,85,0.00,FEW,,0.00,0.0,WeatherDisplay:10.37,2013-02-15 05:36:00,
2013-02-15 00:41:00,35.0,30.9,30.07,SSW,209,0.0,0.0,85,0.00,FEW,,0.00,0.0,WeatherDisplay:10.37,2013-02-15 05:41:00,
2013-02-15 00:46:00,34.9,30.8,30.07,SSW,209,0.0,0.0,85,0.00,FEW,,0.00,0.0,WeatherDisplay:10.37,2013-02-15 05:46:00,
2013-02-15 00:51:00,34.7,30.7,30.06,SSW,209,0.0,0.0,85,0.00,FEW,,0.00,0.0,WeatherDisplay:10.37,2013-02-15 05:51:00,
2013-02-15 00:56:00,34.6,30.6,30.07,SSW,209,0.0,0.0,85,0.00,FEW,,0.00,0.0,WeatherDisplay:10.37,2013-02-15 05:56:00,
2013-02-15 01:01:00,34.6,30.5,30.07,SSW,209,0.0,0.0,85,0.00,FEW,,0.00,0.0,WeatherDisplay:10.37,2013-02-15 06:01:00,
2013-02-15 01:06:00,34.4,30.4,30.07,SSW,209,0.0,0.0,85,0.00,FEW,,0.00,0.0,WeatherDisplay:10.37,2013-02-15 06:06:00,
2013-02-15 01:11:00,34.3,30.3,30.07,SSW,209,0.0,0.0,85,0.00,FEW,,0.00,0.0,WeatherDisplay:10.37,2013-02-15 06:11:00,
2013-02-15 01:16:00,34.1,30.1,30.06,SSW,209,0.0,0.0,85,0.00,FEW,,0.00,0.0,WeatherDisplay:10.37,2013-02-15 06:16:00,
2013-02-15 01:21:00,34.0,30.0,30.06,SSW,209,0.0,0.0,85,0.00,FEW,,0.00,0.0,WeatherDisplay:10.37,2013-02-15 06:21:00,
2013-02-15 01:26:00,33.9,29.9,30.06,SSW,209,0.0,0.0,85,0.00,FEW,,0.00,0.0,WeatherDisplay:10.37,2013-02-15 06:26:00,
2013-02-15 01:31:00,33.8,29.8,30.06,SSW,209,0.0,0.0,85,0.00,FEW,,0.00,0.0,WeatherDisplay:10.37,2013-02-15 06:31:00,
2013-02-15 01:36:00,33.7,29.7,30.06,SSW,209,0.0,0.0,85,0.00,FEW,,0.00,0.0,WeatherDisplay:10.37,2013-02-15 06:36:00,
2013-02-15 01:41:00,33.7,30.0,30.05,SSW,209,0.0,0.0,86,0.00,FEW,,0.00,0.0,WeatherDisplay:10.37,2013-02-15 06:41:00,
2013-02-15 01:46:00,33.5,29.8,30.05,SSW,209,0.0,0.0,86,0.00,FEW,,0.00,0.0,WeatherDisplay:10.37,2013-02-15 06:46:00,
2013-02-15 01:51:00,33.5,29.8,30.05,SSW,209,0.0,0.0,86,0.00,FEW,,0.00,0.0,WeatherDisplay:10.37,2013-02-15 06:51:00,
2013-02-15 01:56:00,33.4,29.7,30.05,SSW,209,0.0,0.0,86,0.00,FEW,,0.00,0.0,WeatherDisplay:10.37,2013-02-15 06:56:00,
2013-02-15 02:01:00,33.4,29.7,30.05,SSW,209,0.0,0.0,86,0.00,CLR,,0.00,0.0,WeatherDisplay:10.37,2013-02-15 07:01:00,
2013-02-15 02:06:00,33.2,29.5,30.05,SSW,209,0.0,0.0,86,0.00,CLR,,0.00,0.0,WeatherDisplay:10.37,2013-02-15 07:06:00,
2013-02-15 02:16:00,33.1,29.7,30.04,SSW,209,0.0,0.0,87,0.00,CLR,,0.00,0.0,WeatherDisplay:10.37,2013-02-15 07:16:00,
2013-02-15 02:21:00,32.9,29.5,30.04,SSW,209,0.0,0.0,87,0.00,CLR,,0.00,0.0,WeatherDisplay:10.37,2013-02-15 07:21:00,
2013-02-15 02:26:00,32.9,29.5,30.04,SSW,209,0.0,0.0,87,0.00,CLR,,0.00,0.0,WeatherDisplay:10.37,2013-02-15 07:26:00,
2013-02-15 02:31:00,32.8,29.4,30.04,SSW,209,0.0,0.0,87,0.00,CLR,,0.00,0.0,WeatherDisplay:10.37,2013-02-15 07:31:00,
2013-02-15 02:36:00,32.7,29.3,30.04,SSW,209,0.0,0.0,87,0.00,CLR,,0.00,0.0,WeatherDisplay:10.37,2013-02-15 07:36:00,
2013-02-15 02:41:00,32.7,29.3,30.03,SSW,209,0.0,0.0,87,0.00,CLR,,0.00,0.0,WeatherDisplay:10.37,2013-02-15 07:41:00,
2013-02-15 02:46:00,32.5,29.1,30.03,SSW,209,0.0,0.0,87,0.00,CLR,,0.00,0.0,WeatherDisplay:10.37,2013-02-15 07:46:00,
2013-02-15 02:51:00,32.4,29.2,30.03,SSW,209,0.0,0.0,88,0.00,CLR,,0.00,0.0,WeatherDisplay:10.37,2013-02-15 07:51:00,
2013-02-15 02:56:00,32.4,29.2,30.03,SSW,209,0.0,0.0,88,0.00,CLR,,0.00,0.0,WeatherDisplay:10.37,2013-02-15 07:56:00,
2013-02-15 03:01:00,32.2,28.8,30.03,SSW,209,0.0,0.0,87,0.00,CLR,,0.00,0.0,WeatherDisplay:10.37,2013-02-15 08:01:00,
2013-02-15 03:11:00,32.1,28.7,30.03,SSW,209,0.0,0.0,87,0.00,CLR,,0.00,0.0,WeatherDisplay:10.37,2013-02-15 08:11:00,
2013-02-15 03:16:00,31.9,28.5,30.03,SSW,209,0.0,0.0,87,0.00,CLR,,0.00,0.0,WeatherDisplay:10.37,2013-02-15 08:16:00,
2013-02-15 03:21:00,31.9,28.8,30.03,SSW,209,0.0,0.0,88,0.00,CLR,,0.00,0.0,WeatherDisplay:10.37,2013-02-15 08:21:00,
2013-02-15 03:26:00,31.9,28.8,30.03,SSW,209,0.0,0.0,88,0.00,CLR,,0.00,0.0,WeatherDisplay:10.37,2013-02-15 08:26:00,
2013-02-15 03:31:00,31.8,28.7,30.03,SSW,209,0.0,0.0,88,0.00,CLR,,0.00,0.0,WeatherDisplay:10.37,2013-02-15 08:31:00,
2013-02-15 03:36:00,31.8,28.9,30.03,SSW,209,0.0,0.0,89,0.00,CLR,,0.00,0.0,WeatherDisplay:10.37,2013-02-15 08:36:00,
2013-02-15 03:41:00,31.8,28.9,30.03,SSW,209,0.0,0.0,89,0.00,CLR,,0.00,0.0,WeatherDisplay:10.37,2013-02-15 08:41:00,
2013-02-15 03:46:00,31.8,28.9,30.03,SSW,209,0.0,0.0,89,0.00,CLR,,0.00,0.0,WeatherDisplay:10.37,2013-02-15 08:46:00,
2013-02-15 03:51:00,31.8,28.9,30.03,SSW,209,0.0,0.0,89,0.00,CLR,,0.00,0.0,WeatherDisplay:10.37,2013-02-15 08:51:00,
2013-02-15 03:56:00,31.8,28.9,30.03,SSW,209,0.0,0.0,89,0.00,CLR,,0.00,0.0,WeatherDisplay:10.37,2013-02-15 08:56:00,
2013-02-15 04:01:00,31.8,28.9,30.03,SSW,209,0.0,0.0,89,0.00,CLR,,0.00,0.0,WeatherDisplay:10.37,2013-02-15 09:01:00,
2013-02-15 04:11:00,31.8,28.9,30.03,SSW,209,0.0,0.0,89,0.00,CLR,,0.00,0.0,WeatherDisplay:10.37,2013-02-15 09:11:00,
2013-02-15 04:16:00,31.8,28.9,30.03,SSW,209,0.0,0.0,89,0.00,CLR,,0.00,0.0,WeatherDisplay:10.37,2013-02-15 09:16:00,
2013-02-15 04:21:00,31.8,29.2,30.04,SSW,209,0.0,0.0,90,0.00,CLR,,0.00,0.0,WeatherDisplay:10.37,2013-02-15 09:21:00,
2013-02-15 04:26:00,31.8,29.2,30.04,SSW,209,0.0,0.0,90,0.00,CLR,,0.00,0.0,WeatherDisplay:10.37,2013-02-15 09:26:00,
2013-02-15 04:31:00,31.8,29.2,30.04,SSW,209,0.0,0.0,90,0.00,CLR,,0.00,0.0,WeatherDisplay:10.37,2013-02-15 09:31:00,
2013-02-15 04:36:00,31.6,29.0,30.04,SSW,209,0.0,0.0,90,0.00,CLR,,0.00,0.0,WeatherDisplay:10.37,2013-02-15 09:36:00,
2013-02-15 04:41:00,31.6,29.0,30.04,SSW,209,0.0,0.0,90,0.00,CLR,,0.00,0.0,WeatherDisplay:10.37,2013-02-15 09:41:00,
2013-02-15 04:46:00,31.6,29.0,30.04,SSW,209,0.0,0.0,90,0.00,CLR,,0.00,0.0,WeatherDisplay:10.37,2013-02-15 09:46:00,
2013-02-15 04:51:00,31.6,29.0,30.04,SSW,209,0.0,0.0,90,0.00,CLR,,0.00,0.0,WeatherDisplay:10.37,2013-02-15 09:51:00,
2013-02-15 04:56:00,31.6,29.0,30.03,SSW,209,0.0,0.0,90,0.00,CLR,,0.00,0.0,WeatherDisplay:10.37,2013-02-15 09:56:00,
2013-02-15 05:01:00,31.6,29.3,30.03,SSW,209,0.0,0.0,91,0.00,CLR,,0.00,0.0,WeatherDisplay:10.37,2013-02-15 10:01:00,
2013-02-15 05:11:00,31.8,29.5,30.03,SSW,209,0.0,0.0,91,0.00,CLR,,0.00,0.0,WeatherDisplay:10.37,2013-02-15 10:11:00,
2013-02-15 05:16:00,31.6,29.3,30.03,SSW,209,0.0,0.0,91,0.00,CLR,,0.00,0.0,WeatherDisplay:10.37,2013-02-15 10:16:00,
2013-02-15 05:21:00,31.6,29.3,30.03,SSW,209,0.0,0.0,91,0.00,CLR,,0.00,0.0,WeatherDisplay:10.37,2013-02-15 10:21:00,
2013-02-15 05:26:00,31.6,29.3,30.04,SSW,209,0.0,0.0,91,0.00,CLR,,0.00,0.0,WeatherDisplay:10.37,2013-02-15 10:26:00,
2013-02-15 05:31:00,31.6,29.3,30.03,SSW,209,0.0,0.0,91,0.00,CLR,,0.00,0.0,WeatherDisplay:10.37,2013-02-15 10:31:00,
2013-02-15 05:36:00,31.6,29.3,30.03,SSW,209,0.0,0.0,91,0.00,CLR,,0.00,0.0,WeatherDisplay:10.37,2013-02-15 10:36:00,
2013-02-15 05:41:00,31.5,29.2,30.03,SSW,209,0.0,0.0,91,0.00,CLR,,0.00,0.0,WeatherDisplay:10.37,2013-02-15 10:41:00,
2013-02-15 05:46:00,31.5,29.2,30.03,SSW,209,0.0,0.0,91,0.00,CLR,,0.00,0.0,WeatherDisplay:10.37,2013-02-15 10:46:00,
2013-02-15 05:51:00,31.5,29.2,30.03,SSW,209,0.0,0.0,91,0.00,CLR,,0.00,0.0,WeatherDisplay:10.37,2013-02-15 10:51:00,
2013-02-15 05:56:00,31.5,29.2,30.03,SSW,209,0.0,0.0,91,0.00,CLR,,0.00,0.0,WeatherDisplay:10.37,2013-02-15 10:56:00,
2013-02-15 06:01:00,31.5,29.2,30.03,SSW,209,0.0,0.0,91,0.00,CLR,,0.00,0.0,WeatherDisplay:10.37,2013-02-15 11:01:00,
2013-02-15 06:11:00,31.3,29.0,30.04,SSW,209,0.0,0.0,91,0.00,CLR,,0.00,0.0,WeatherDisplay:10.37,2013-02-15 11:11:00,
2013-02-15 06:16:00,31.3,29.0,30.05,SSW,209,0.0,0.0,91,0.00,CLR,,0.00,0.0,WeatherDisplay:10.37,2013-02-15 11:16:00,
2013-02-15 06:21:00,31.3,29.0,30.05,SSW,209,0.0,0.0,91,0.00,CLR,,0.00,0.0,WeatherDisplay:10.37,2013-02-15 11:21:00,
2013-02-15 06:26:00,31.2,28.9,30.05,SSW,209,0.0,0.0,91,0.00,CLR,,0.00,0.0,WeatherDisplay:10.37,2013-02-15 11:26:00,
2013-02-15 06:31:00,31.3,29.2,30.05,SSW,209,0.0,0.0,92,0.00,CLR,,0.00,0.0,WeatherDisplay:10.37,2013-02-15 11:31:00,
2013-02-15 06:36:00,31.3,29.2,30.05,SSW,209,0.0,0.0,92,0.00,CLR,,0.00,0.0,WeatherDisplay:10.37,2013-02-15 11:36:00,
2013-02-15 06:41:00,31.3,29.2,30.05,SSW,209,0.0,0.0,92,0.00,CLR,,0.00,0.0,WeatherDisplay:10.37,2013-02-15 11:41:00,
2013-02-15 06:46:00,31.5,29.4,30.05,SSW,209,0.0,0.0,92,0.00,CLR,,0.00,0.0,WeatherDisplay:10.37,2013-02-15 11:46:00,
2013-02-15 06:51:00,31.6,29.5,30.06,SSW,209,0.0,0.0,92,0.00,CLR,,0.00,0.0,WeatherDisplay:10.37,2013-02-15 11:51:00,
2013-02-15 06:56:00,31.6,29.5,30.06,SSW,209,0.0,0.0,92,0.00,CLR,,0.00,0.0,WeatherDisplay:10.37,2013-02-15 11:56:00,
2013-02-15 07:01:00,31.8,29.7,30.06,SSW,209,0.0,0.0,92,0.00,CLR,,0.00,0.0,WeatherDisplay:10.37,2013-02-15 12:01:00,
2013-02-15 07:06:00,31.8,29.7,30.07,SSW,209,0.0,0.0,92,0.00,CLR,,0.00,5.8,WeatherDisplay:10.37,2013-02-15 12:06:00,
2013-02-15 07:11:00,31.8,29.7,30.07,SSW,209,0.0,0.0,92,0.00,CLR,,0.00,8.0,WeatherDisplay:10.37,2013-02-15 12:11:00,
2013-02-15 07:16:00,31.8,29.7,30.07,SSW,209,0.0,0.0,92,0.00,CLR,,0.00,10.4,WeatherDisplay:10.37,2013-02-15 12:16:00,
2013-02-15 07:21:00,31.9,29.8,30.07,SSW,209,0.0,0.0,92,0.00,CLR,,0.00,12.6,WeatherDisplay:10.37,2013-02-15 12:21:00,
2013-02-15 07:26:00,31.9,29.8,30.07,SSW,209,0.0,0.0,92,0.00,CLR,,0.00,16.1,WeatherDisplay:10.37,2013-02-15 12:26:00,
2013-02-15 07:31:00,31.9,29.8,30.07,SSW,209,0.0,0.0,92,0.00,CLR,,0.00,18.4,WeatherDisplay:10.37,2013-02-15 12:31:00,
2013-02-15 07:36:00,32.1,30.0,30.07,SSW,209,0.0,0.0,92,0.00,CLR,,0.00,20.7,WeatherDisplay:10.37,2013-02-15 12:36:00,
2013-02-15 07:41:00,32.1,30.3,30.07,SSW,209,0.0,0.0,93,0.00,CLR,,0.00,21.8,WeatherDisplay:10.37,2013-02-15 12:41:00,
2013-02-15 07:46:00,32.1,30.3,30.07,SSW,209,0.0,0.0,93,0.00,CLR,,0.00,21.8,WeatherDisplay:10.37,2013-02-15 12:46:00,
2013-02-15 07:51:00,32.2,30.4,30.07,SSW,209,0.0,0.0,93,0.00,CLR,,0.00,24.2,WeatherDisplay:10.37,2013-02-15 12:51:00,
2013-02-15 07:56:00,32.2,30.4,30.07,SSW,209,0.0,0.0,93,0.00,CLR,,0.00,26.5,WeatherDisplay:10.37,2013-02-15 12:56:00,
2013-02-15 08:01:00,32.4,30.6,30.08,SSW,209,0.0,0.0,93,0.00,CLR,,0.00,26.5,WeatherDisplay:10.37,2013-02-15 13:01:00,
2013-02-15 08:11:00,32.8,31.2,30.08,SW,222,1.0,3.0,94,0.00,CLR,,0.00,28.7,WeatherDisplay:10.37,2013-02-15 13:11:00,
2013-02-15 08:16:00,33.1,31.6,30.08,WSW,239,0.0,1.0,94,0.00,CLR,,0.00,29.9,WeatherDisplay:10.37,2013-02-15 13:16:00,
2013-02-15 08:21:00,33.4,31.9,30.08,WSW,239,0.0,0.0,94,0.00,CLR,,0.00,29.9,WeatherDisplay:10.37,2013-02-15 13:21:00,
2013-02-15 08:26:00,33.6,32.1,30.08,WSW,239,0.0,0.0,94,0.00,CLR,,0.00,29.9,WeatherDisplay:10.37,2013-02-15 13:26:00,
2013-02-15 08:31:00,33.8,32.3,30.08,WSW,239,0.0,0.0,94,0.00,CLR,,0.00,32.2,WeatherDisplay:10.37,2013-02-15 13:31:00,
2013-02-15 08:36:00,34.2,32.9,30.08,WSW,239,0.0,0.0,95,0.00,CLR,,0.00,34.5,WeatherDisplay:10.37,2013-02-15 13:36:00,
2013-02-15 08:41:00,34.6,33.3,30.08,WSW,239,0.0,0.0,95,0.00,CLR,,0.00,34.5,WeatherDisplay:10.37,2013-02-15 13:41:00,
2013-02-15 08:46:00,34.9,33.6,30.08,WSW,239,0.0,0.0,95,0.00,CLR,,0.00,36.8,WeatherDisplay:10.37,2013-02-15 13:46:00,
2013-02-15 08:51:00,35.3,34.1,30.08,WSW,239,0.0,1.0,95,0.00,CLR,,0.00,36.8,WeatherDisplay:10.37,2013-02-15 13:51:00,
2013-02-15 08:56:00,35.9,34.6,30.08,WSW,239,0.0,0.0,95,0.00,CLR,,0.00,37.9,WeatherDisplay:10.37,2013-02-15 13:56:00,
2013-02-15 09:01:00,36.4,35.4,30.08,WSW,239,0.0,0.0,96,0.00,CLR,,0.00,37.9,WeatherDisplay:10.37,2013-02-15 14:01:00,
2013-02-15 09:06:00,36.9,35.9,30.08,WSW,239,0.0,1.0,96,0.00,CLR,,0.00,40.3,WeatherDisplay:10.37,2013-02-15 14:06:00,
2013-02-15 09:11:00,37.5,36.4,30.07,WSW,240,0.0,1.0,96,0.00,CLR,,0.00,40.3,WeatherDisplay:10.37,2013-02-15 14:11:00,
2013-02-15 09:21:00,38.5,37.5,30.07,WSW,240,0.0,1.0,96,0.01,RA,,0.01,42.6,WeatherDisplay:10.37,2013-02-15 14:21:00,
2013-02-15 09:26:00,39.2,38.1,30.08,West,262,0.0,2.0,96,0.01,RA,,0.01,42.6,WeatherDisplay:10.37,2013-02-15 14:26:00,
2013-02-15 09:31:00,39.6,38.6,30.08,WNW,302,0.0,1.0,96,0.01,CLR,,0.01,44.8,WeatherDisplay:10.37,2013-02-15 14:31:00,
2013-02-15 09:36:00,40.1,39.1,30.08,NW,313,0.0,1.0,96,0.01,CLR,,0.01,44.8,WeatherDisplay:10.37,2013-02-15 14:36:00,
2013-02-15 09:41:00,40.6,39.5,30.08,NW,308,0.0,2.0,96,0.01,CLR,,0.01,44.8,WeatherDisplay:10.37,2013-02-15 14:41:00,
2013-02-15 09:46:00,41.1,40.0,30.08,NW,306,0.0,1.0,96,0.01,CLR,,0.01,44.8,WeatherDisplay:10.37,2013-02-15 14:46:00,
2013-02-15 09:51:00,41.6,40.5,30.08,NW,306,0.0,1.0,96,0.01,CLR,,0.01,46.0,WeatherDisplay:10.37,2013-02-15 14:51:00,
2013-02-15 09:56:00,42.2,40.9,30.08,NW,305,1.0,4.0,95,0.01,CLR,,0.01,46.0,WeatherDisplay:10.37,2013-02-15 14:56:00,
2013-02-15 10:01:00,42.9,41.3,30.07,WNW,284,1.0,2.0,94,0.01,CLR,,0.01,46.0,WeatherDisplay:10.37,2013-02-15 15:01:00,
2013-02-15 10:11:00,44.2,42.0,30.07,NW,311,0.0,0.0,92,0.01,CLR,,0.01,48.3,WeatherDisplay:10.37,2013-02-15 15:11:00,
2013-02-15 10:16:00,44.8,41.5,30.07,NNW,345,1.0,3.0,88,0.01,CLR,,0.01,48.3,WeatherDisplay:10.37,2013-02-15 15:16:00,
2013-02-15 10:21:00,45.6,40.8,30.07,NNW,344,1.0,5.0,83,0.00,CLR,,0.01,143.8,WeatherDisplay:10.37,2013-02-15 15:21:00,
2013-02-15 10:26:00,47.1,40.6,30.07,WNW,297,1.0,4.0,78,0.00,CLR,,0.01,590.0,WeatherDisplay:10.37,2013-02-15 15:26:00,
2013-02-15 10:31:00,49.2,39.4,30.07,WNW,303,1.0,2.0,69,0.00,CLR,,0.01,610.7,WeatherDisplay:10.37,2013-02-15 15:31:00,
2013-02-15 10:36:00,50.2,38.5,30.07,West,277,2.0,5.0,64,0.00,CLR,,0.01,629.1,WeatherDisplay:10.37,2013-02-15 15:36:00,
2013-02-15 10:41:00,51.2,38.6,30.07,West,263,1.0,3.0,62,0.00,CLR,,0.01,647.4,WeatherDisplay:10.37,2013-02-15 15:41:00,
2013-02-15 10:46:00,52.0,38.9,30.07,West,265,2.0,4.0,61,0.00,CLR,,0.01,658.9,WeatherDisplay:10.37,2013-02-15 15:46:00,
2013-02-15 10:51:00,52.7,38.7,30.07,WNW,294,0.0,3.0,59,0.00,CLR,,0.01,669.3,WeatherDisplay:10.37,2013-02-15 15:51:00,
2013-02-15 10:56:00,53.3,38.9,30.07,NW,315,0.0,5.0,58,0.00,CLR,,0.01,680.8,WeatherDisplay:10.37,2013-02-15 15:56:00,
2013-02-15 11:01:00,54.1,39.2,30.07,NW,312,1.0,4.0,57,0.00,CLR,,0.01,695.8,WeatherDisplay:10.37,2013-02-15 16:01:00,
2013-02-15 11:11:00,55.0,38.2,30.07,North,349,1.0,2.0,53,0.00,CLR,,0.01,715.3,WeatherDisplay:10.37,2013-02-15 16:11:00,
2013-02-15 11:16:00,55.4,38.5,30.06,West,281,1.0,5.0,53,0.00,CLR,,0.01,719.9,WeatherDisplay:10.37,2013-02-15 16:16:00,
2013-02-15 11:21:00,55.9,38.5,30.06,NNW,346,2.0,3.0,52,0.00,CLR,,0.01,730.3,WeatherDisplay:10.37,2013-02-15 16:21:00,
2013-02-15 11:26:00,56.1,39.1,30.05,NE,34,1.0,3.0,53,0.00,CLR,,0.01,738.3,WeatherDisplay:10.37,2013-02-15 16:26:00,
2013-02-15 11:31:00,56.6,39.6,30.05,North,352,0.0,4.0,53,0.00,CLR,,0.01,744.0,WeatherDisplay:10.37,2013-02-15 16:31:00,
2013-02-15 11:36:00,57.0,39.0,30.05,NW,323,1.0,2.0,51,0.00,CLR,,0.01,754.4,WeatherDisplay:10.37,2013-02-15 16:36:00,
2013-02-15 11:41:00,57.3,37.8,30.05,North,3,2.0,5.0,48,0.00,CLR,,0.01,755.6,WeatherDisplay:10.37,2013-02-15 16:41:00,
2013-02-15 11:46:00,57.6,37.0,30.05,NNE,21,0.0,2.0,46,0.00,CLR,,0.01,763.6,WeatherDisplay:10.37,2013-02-15 16:46:00,
2013-02-15 11:51:00,58.1,37.9,30.05,NNE,19,1.0,2.0,47,0.00,CLR,,0.01,770.5,WeatherDisplay:10.37,2013-02-15 16:51:00,
2013-02-15 11:56:00,58.1,36.3,30.05,NE,41,0.0,4.0,44,0.00,CLR,,0.01,760.2,WeatherDisplay:10.37,2013-02-15 16:56:00,
2013-02-15 12:01:00,58.4,37.7,30.04,ENE,63,0.0,2.0,46,0.00,FEW,,0.01,701.5,WeatherDisplay:10.37,2013-02-15 17:01:00,
2013-02-15 12:11:00,58.7,35.7,30.03,South,184,2.0,4.0,42,0.00,FEW,,0.01,612.9,WeatherDisplay:10.37,2013-02-15 17:11:00,
2013-02-15 12:16:00,58.6,34.3,30.03,SW,223,1.0,5.0,40,0.00,FEW,,0.01,638.3,WeatherDisplay:10.37,2013-02-15 17:16:00,
2013-02-15 12:21:00,58.4,34.2,30.03,WSW,242,1.0,4.0,40,0.00,FEW,,0.01,714.2,WeatherDisplay:10.37,2013-02-15 17:21:00,
2013-02-15 12:26:00,58.7,33.8,30.03,SW,222,1.0,5.0,39,0.00,FEW,,0.01,771.7,WeatherDisplay:10.37,2013-02-15 17:26:00,
2013-02-15 12:31:00,58.9,32.7,30.03,West,261,1.0,5.0,37,0.00,FEW,,0.01,792.3,WeatherDisplay:10.37,2013-02-15 17:31:00,
2013-02-15 12:36:00,58.9,34.0,30.02,West,272,2.0,4.0,39,0.00,FEW,,0.01,790.0,WeatherDisplay:10.37,2013-02-15 17:36:00,
2013-02-15 12:41:00,59.3,34.3,30.02,NE,36,2.0,3.0,39,0.00,FEW,,0.01,784.3,WeatherDisplay:10.37,2013-02-15 17:41:00,
2013-02-15 12:46:00,59.6,33.9,30.02,NNE,17,0.0,1.0,38,0.00,FEW,,0.01,782.0,WeatherDisplay:10.37,2013-02-15 17:46:00,
2013-02-15 12:51:00,59.6,32.6,30.02,SSE,157,1.0,4.0,36,0.00,FEW,,0.01,780.8,WeatherDisplay:10.37,2013-02-15 17:51:00,
2013-02-15 12:56:00,59.6,31.9,30.02,South,179,0.0,2.0,35,0.00,FEW,,0.01,770.5,WeatherDisplay:10.37,2013-02-15 17:56:00,
2013-02-15 13:01:00,59.6,33.3,30.01,South,184,2.0,4.0,37,0.00,FEW,,0.01,747.5,WeatherDisplay:10.37,2013-02-15 18:01:00,
2013-02-15 13:11:00,59.9,34.2,30.01,SW,226,2.0,4.0,38,0.00,FEW,,0.01,685.4,WeatherDisplay:10.37,2013-02-15 18:11:00,
2013-02-15 13:16:00,60.4,34.0,30.00,SW,236,3.0,6.0,37,0.00,FEW,,0.01,648.6,WeatherDisplay:10.37,2013-02-15 18:16:00,
2013-02-15 13:21:00,60.0,33.7,30.00,South,191,0.0,7.0,37,0.00,FEW,,0.01,616.4,WeatherDisplay:10.37,2013-02-15 18:21:00,
2013-02-15 13:26:00,59.9,32.9,30.00,SSE,152,0.0,5.0,36,0.00,FEW,,0.01,106.9,WeatherDisplay:10.37,2013-02-15 18:26:00,
2013-02-15 13:36:00,60.2,33.1,30.00,South,171,1.0,4.0,36,0.00,FEW,,0.01,61.0,WeatherDisplay:10.37,2013-02-15 18:36:00,
2013-02-15 13:41:00,60.4,32.6,29.99,WSW,245,2.0,5.0,35,0.00,FEW,,0.01,271.4,WeatherDisplay:10.37,2013-02-15 18:41:00,
2013-02-15 13:46:00,60.5,33.4,29.99,West,271,2.0,5.0,36,0.00,FEW,,0.01,208.1,WeatherDisplay:10.37,2013-02-15 18:46:00,
2013-02-15 13:51:00,60.5,31.2,29.99,WSW,240,1.0,4.0,33,0.00,FEW,,0.01,187.4,WeatherDisplay:10.37,2013-02-15 18:51:00,
2013-02-15 13:56:00,60.7,33.5,29.99,North,354,1.0,6.0,36,0.00,FEW,,0.01,58.7,WeatherDisplay:10.37,2013-02-15 18:56:00,
2013-02-15 14:01:00,60.7,32.1,29.99,NW,310,2.0,5.0,34,0.00,FEW,,0.01,69.0,WeatherDisplay:10.37,2013-02-15 19:01:00,
2013-02-15 14:11:00,60.7,31.4,29.98,SE,141,1.0,5.0,33,0.00,FEW,,0.01,357.7,WeatherDisplay:10.37,2013-02-15 19:11:00,
2013-02-15 14:21:00,60.9,33.0,29.97,SSE,167,3.0,6.0,35,0.00,FEW,,0.01,661.3,WeatherDisplay:10.37,2013-02-15 19:21:00,
2013-02-15 14:26:00,61.0,32.4,29.97,SSW,193,0.0,5.0,34,0.00,FEW,,0.01,655.5,WeatherDisplay:10.37,2013-02-15 19:26:00,
2013-02-15 14:31:00,61.0,31.7,29.97,SW,224,2.0,4.0,33,0.00,FEW,,0.01,645.1,WeatherDisplay:10.37,2013-02-15 19:31:00,
2013-02-15 14:41:00,61.2,31.1,29.96,SW,222,2.0,4.0,32,0.00,FEW,,0.01,616.4,WeatherDisplay:10.37,2013-02-15 19:41:00,
2013-02-15 14:46:00,61.4,32.0,29.96,SSW,194,0.0,3.0,33,0.00,FEW,,0.01,608.3,WeatherDisplay:10.37,2013-02-15 19:46:00,
2013-02-15 14:56:00,61.8,31.6,29.95,West,275,1.0,4.0,32,0.00,FEW,,0.01,579.6,WeatherDisplay:10.37,2013-02-15 19:56:00,
2013-02-15 15:01:00,61.7,30.7,29.95,WSW,248,1.0,3.0,31,0.00,FEW,,0.01,570.4,WeatherDisplay:10.37,2013-02-15 20:01:00,
2013-02-15 15:11:00,61.6,31.4,29.95,South,190,2.0,3.0,32,0.00,FEW,,0.01,539.3,WeatherDisplay:10.37,2013-02-15 20:11:00,
2013-02-15 15:16:00,61.8,31.6,29.95,NNE,23,1.0,4.0,32,0.00,FEW,,0.01,288.7,WeatherDisplay:10.37,2013-02-15 20:16:00,
2013-02-15 15:21:00,62.0,31.8,29.94,WSW,258,0.0,2.0,32,0.00,FEW,,0.01,52.9,WeatherDisplay:10.37,2013-02-15 20:21:00,
2013-02-15 15:26:00,62.1,31.1,29.94,South,191,3.0,6.0,31,0.00,FEW,,0.01,72.4,WeatherDisplay:10.37,2013-02-15 20:26:00,
2013-02-15 15:31:00,62.1,31.1,29.94,SSE,155,1.0,5.0,31,0.00,FEW,,0.01,54.0,WeatherDisplay:10.37,2013-02-15 20:31:00,
2013-02-15 15:36:00,62.1,31.9,29.94,SE,138,0.0,4.0,32,0.00,FEW,,0.01,52.9,WeatherDisplay:10.37,2013-02-15 20:36:00,
2013-02-15 15:41:00,62.0,31.8,29.94,SW,230,1.0,5.0,32,0.00,FEW,,0.01,50.6,WeatherDisplay:10.37,2013-02-15 20:41:00,
2013-02-15 15:46:00,62.0,31.0,29.94,SW,231,2.0,4.0,31,0.00,FEW,,0.01,62.1,WeatherDisplay:10.37,2013-02-15 20:46:00,
2013-02-15 15:56:00,62.0,30.2,29.94,SW,225,1.0,5.0,30,0.00,FEW,,0.01,71.3,WeatherDisplay:10.37,2013-02-15 20:56:00,
2013-02-15 16:01:00,62.0,33.3,29.93,WNW,293,1.0,2.0,34,0.00,FEW,,0.01,46.0,WeatherDisplay:10.37,2013-02-15 21:01:00,
2013-02-15 16:11:00,61.8,31.6,29.93,West,270,1.0,4.0,32,0.00,FEW,,0.01,72.4,WeatherDisplay:10.37,2013-02-15 21:11:00,
2013-02-15 16:16:00,61.6,29.8,29.94,South,179,2.0,6.0,30,0.00,FEW,,0.01,50.6,WeatherDisplay:10.37,2013-02-15 21:16:00,
2013-02-15 16:21:00,61.6,30.6,29.94,SSW,206,1.0,3.0,31,0.00,FEW,,0.01,72.4,WeatherDisplay:10.37,2013-02-15 21:21:00,
2013-02-15 16:26:00,61.5,30.6,29.94,West,279,1.0,4.0,31,0.00,FEW,,0.01,40.3,WeatherDisplay:10.37,2013-02-15 21:26:00,
2013-02-15 16:31:00,61.4,30.5,29.94,West,265,0.0,2.0,31,0.00,FEW,,0.01,106.9,WeatherDisplay:10.37,2013-02-15 21:31:00,
2013-02-15 16:36:00,61.3,31.2,29.93,WSW,257,0.0,3.0,32,0.00,FEW,,0.01,37.9,WeatherDisplay:10.37,2013-02-15 21:36:00,
2013-02-15 16:41:00,61.2,31.8,29.93,WSW,243,0.0,2.0,33,0.00,FEW,,0.01,37.9,WeatherDisplay:10.37,2013-02-15 21:41:00,
2013-02-15 16:46:00,61.0,32.4,29.93,SSW,212,0.0,2.0,34,0.00,FEW,,0.01,36.8,WeatherDisplay:10.37,2013-02-15 21:46:00,
2013-02-15 16:51:00,60.9,30.8,29.93,South,188,1.0,2.0,32,0.00,FEW,,0.01,34.5,WeatherDisplay:10.37,2013-02-15 21:51:00,
2013-02-15 16:56:00,60.7,30.6,29.93,South,185,0.0,2.0,32,0.00,FEW,,0.01,32.2,WeatherDisplay:10.37,2013-02-15 21:56:00,
2013-02-15 17:01:00,60.5,32.0,29.93,South,185,0.0,0.0,34,0.00,FEW,,0.01,29.9,WeatherDisplay:10.37,2013-02-15 22:01:00,
2013-02-15 17:11:00,60.1,31.6,29.93,SSW,197,0.0,2.0,34,0.00,FEW,,0.01,26.5,WeatherDisplay:10.37,2013-02-15 22:11:00,
2013-02-15 17:16:00,59.9,32.2,29.92,SSW,206,0.0,0.0,35,0.00,FEW,,0.01,24.2,WeatherDisplay:10.37,2013-02-15 22:16:00,
2013-02-15 17:21:00,59.7,33.4,29.92,SSW,203,0.0,0.0,37,0.00,FEW,,0.01,21.8,WeatherDisplay:10.37,2013-02-15 22:21:00,
2013-02-15 17:26:00,59.5,33.2,29.92,SSW,203,0.0,0.0,37,0.00,FEW,,0.01,18.4,WeatherDisplay:10.37,2013-02-15 22:26:00,
2013-02-15 17:31:00,59.3,33.0,29.92,SSW,203,0.0,0.0,37,0.00,FEW,,0.01,16.1,WeatherDisplay:10.37,2013-02-15 22:31:00,
2013-02-15 17:36:00,59.2,33.6,29.92,SSW,203,0.0,0.0,38,0.00,FEW,,0.01,13.8,WeatherDisplay:10.37,2013-02-15 22:36:00,
2013-02-15 17:41:00,58.9,34.0,29.92,SSW,203,0.0,0.0,39,0.00,FEW,,0.01,12.6,WeatherDisplay:10.37,2013-02-15 22:41:00,
2013-02-15 17:46:00,58.6,34.3,29.92,SSW,203,0.0,0.0,40,0.00,FEW,,0.01,10.4,WeatherDisplay:10.37,2013-02-15 22:46:00,
2013-02-15 17:51:00,58.3,34.0,29.92,SSW,203,0.0,0.0,40,0.00,FEW,,0.01,5.8,WeatherDisplay:10.37,2013-02-15 22:51:00,
2013-02-15 17:56:00,57.9,33.7,29.92,SSW,203,0.0,0.0,40,0.00,FEW,,0.01,0.0,WeatherDisplay:10.37,2013-02-15 22:56:00,
2013-02-15 18:01:00,57.5,34.0,29.92,SSW,203,0.0,0.0,41,0.00,FEW,,0.01,0.0,WeatherDisplay:10.37,2013-02-15 23:01:00,
2013-02-15 18:11:00,56.8,33.9,29.92,SSW,203,0.0,0.0,42,0.00,FEW,,0.01,0.0,WeatherDisplay:10.37,2013-02-15 23:11:00,
2013-02-15 18:16:00,56.3,35.8,29.92,SSW,203,0.0,0.0,46,0.00,FEW,,0.01,0.0,WeatherDisplay:10.37,2013-02-15 23:16:00,
2013-02-15 18:21:00,55.7,36.3,29.92,SSW,203,0.0,0.0,48,0.00,FEW,,0.01,0.0,WeatherDisplay:10.37,2013-02-15 23:21:00,
2013-02-15 18:26:00,55.2,36.3,29.92,SSW,203,0.0,0.0,49,0.00,FEW,,0.01,0.0,WeatherDisplay:10.37,2013-02-15 23:26:00,
2013-02-15 18:31:00,54.5,35.7,29.92,SSW,203,0.0,0.0,49,0.00,FEW,,0.01,0.0,WeatherDisplay:10.37,2013-02-15 23:31:00,
2013-02-15 18:36:00,54.1,35.9,29.93,SSW,203,0.0,0.0,50,0.00,FEW,,0.01,0.0,WeatherDisplay:10.37,2013-02-15 23:36:00,
2013-02-15 18:41:00,53.7,35.5,29.93,SSW,203,0.0,0.0,50,0.00,FEW,,0.01,0.0,WeatherDisplay:10.37,2013-02-15 23:41:00,
2013-02-15 18:46:00,53.2,35.5,29.93,SSW,203,0.0,0.0,51,0.00,FEW,,0.01,0.0,WeatherDisplay:10.37,2013-02-15 23:46:00,
2013-02-15 18:51:00,52.7,36.1,29.94,SSW,203,0.0,0.0,53,0.00,FEW,,0.01,0.0,WeatherDisplay:10.37,2013-02-15 23:51:00,
2013-02-15 18:56:00,52.3,36.1,29.94,SSW,203,0.0,0.0,54,0.00,FEW,,0.01,0.0,WeatherDisplay:10.37,2013-02-15 23:56:00,
2013-02-15 19:01:00,51.9,36.2,29.94,SSW,203,0.0,0.0,55,0.00,FEW,,0.01,0.0,WeatherDisplay:10.37,2013-02-16 00:01:00,
2013-02-15 19:11:00,51.1,35.5,29.94,SSW,203,0.0,0.0,55,0.00,FEW,,0.01,0.0,WeatherDisplay:10.37,2013-02-16 00:11:00,
2013-02-15 19:16:00,50.8,36.1,29.94,SSW,203,0.0,0.0,57,0.00,FEW,,0.01,0.0,WeatherDisplay:10.37,2013-02-16 00:16:00,
2013-02-15 19:21:00,50.5,36.3,29.94,SSW,203,0.0,0.0,58,0.00,FEW,,0.01,0.0,WeatherDisplay:10.37,2013-02-16 00:21:00,
2013-02-15 19:26:00,50.2,36.8,29.94,SSW,203,0.0,0.0,60,0.00,FEW,,0.01,0.0,WeatherDisplay:10.37,2013-02-16 00:26:00,
2013-02-15 19:36:00,49.7,36.4,29.94,SSW,203,0.0,2.0,60,0.00,FEW,,0.01,0.0,WeatherDisplay:10.37,2013-02-16 00:36:00,
2013-02-15 19:41:00,49.4,36.1,29.94,SSW,203,0.0,1.0,60,0.00,FEW,,0.01,0.0,WeatherDisplay:10.37,2013-02-16 00:41:00,
2013-02-15 19:51:00,48.9,35.6,29.94,SSW,203,0.0,0.0,60,0.00,FEW,,0.01,0.0,WeatherDisplay:10.37,2013-02-16 00:51:00,
2013-02-15 19:56:00,48.8,36.4,29.94,SSW,203,0.0,0.0,62,0.00,FEW,,0.01,0.0,WeatherDisplay:10.37,2013-02-16 00:56:00,
2013-02-15 20:01:00,48.5,36.1,29.94,SSW,203,0.0,0.0,62,0.00,FEW,,0.01,0.0,WeatherDisplay:10.37,2013-02-16 01:01:00,
2013-02-15 20:11:00,47.9,36.3,29.94,SSW,203,0.0,0.0,64,0.00,FEW,,0.01,0.0,WeatherDisplay:10.37,2013-02-16 01:11:00,
2013-02-15 20:16:00,47.6,36.0,29.95,SSW,203,0.0,0.0,64,0.00,FEW,,0.01,0.0,WeatherDisplay:10.37,2013-02-16 01:16:00,
2013-02-15 20:21:00,47.4,35.8,29.95,SSW,203,0.0,0.0,64,0.00,FEW,,0.01,0.0,WeatherDisplay:10.37,2013-02-16 01:21:00,
2013-02-15 20:26:00,47.1,35.9,29.95,SSW,203,0.0,0.0,65,0.00,FEW,,0.01,0.0,WeatherDisplay:10.37,2013-02-16 01:26:00,
2013-02-15 20:36:00,46.4,35.7,29.95,SSW,203,0.0,0.0,66,0.00,FEW,,0.01,0.0,WeatherDisplay:10.37,2013-02-16 01:36:00,
2013-02-15 20:41:00,46.1,35.8,29.95,SSW,203,0.0,0.0,67,0.00,FEW,,0.01,0.0,WeatherDisplay:10.37,2013-02-16 01:41:00,
2013-02-15 20:46:00,45.8,35.5,29.95,SSW,203,0.0,0.0,67,0.00,FEW,,0.01,0.0,WeatherDisplay:10.37,2013-02-16 01:46:00,
2013-02-15 20:51:00,45.5,35.1,29.95,SSW,203,0.0,1.0,67,0.00,FEW,,0.01,0.0,WeatherDisplay:10.37,2013-02-16 01:51:00,
2013-02-15 20:56:00,45.2,35.3,29.95,SSW,203,0.0,0.0,68,0.00,FEW,,0.01,0.0,WeatherDisplay:10.37,2013-02-16 01:56:00,
2013-02-15 21:01:00,45.1,35.5,29.95,SSW,203,0.0,0.0,69,0.00,FEW,,0.01,0.0,WeatherDisplay:10.37,2013-02-16 02:01:00,
2013-02-15 21:11:00,44.8,35.2,29.94,SSW,203,0.0,0.0,69,0.00,FEW,,0.01,0.0,WeatherDisplay:10.37,2013-02-16 02:11:00,
2013-02-15 21:16:00,44.6,35.0,29.94,SSW,203,0.0,0.0,69,0.00,FEW,,0.01,0.0,WeatherDisplay:10.37,2013-02-16 02:16:00,
2013-02-15 21:21:00,44.3,34.8,29.94,SSW,203,0.0,0.0,69,0.00,FEW,,0.01,0.0,WeatherDisplay:10.37,2013-02-16 02:21:00,
2013-02-15 21:26:00,44.2,34.7,29.94,SSW,203,0.0,0.0,69,0.00,FEW,,0.01,0.0,WeatherDisplay:10.37,2013-02-16 02:26:00,
2013-02-15 21:31:00,44.1,34.9,29.94,SSW,203,0.0,0.0,70,0.00,FEW,,0.01,0.0,WeatherDisplay:10.37,2013-02-16 02:31:00,
2013-02-15 21:36:00,43.9,34.7,29.95,SSW,203,0.0,0.0,70,0.00,FEW,,0.01,0.0,WeatherDisplay:10.37,2013-02-16 02:36:00,
2013-02-15 21:46:00,43.5,34.7,29.94,SSW,203,0.0,0.0,71,0.00,FEW,,0.01,0.0,WeatherDisplay:10.37,2013-02-16 02:46:00,
2013-02-15 21:51:00,43.3,34.5,29.94,SSW,203,0.0,0.0,71,0.00,FEW,,0.01,0.0,WeatherDisplay:10.37,2013-02-16 02:51:00,
2013-02-15 21:56:00,43.2,34.4,29.94,SSW,203,0.0,0.0,71,0.00,FEW,,0.01,0.0,WeatherDisplay:10.37,2013-02-16 02:56:00,
2013-02-15 22:01:00,42.9,34.5,29.94,SSW,203,0.0,0.0,72,0.00,FEW,,0.01,0.0,WeatherDisplay:10.37,2013-02-16 03:01:00,
2013-02-15 22:11:00,42.6,34.2,29.94,SSW,203,0.0,0.0,72,0.00,FEW,,0.01,0.0,WeatherDisplay:10.37,2013-02-16 03:11:00,
2013-02-15 22:16:00,42.5,34.1,29.94,SSW,203,0.0,0.0,72,0.00,FEW,,0.01,0.0,WeatherDisplay:10.37,2013-02-16 03:16:00,
2013-02-15 22:21:00,42.3,34.3,29.94,SSW,203,0.0,0.0,73,0.00,FEW,,0.01,0.0,WeatherDisplay:10.37,2013-02-16 03:21:00,
2013-02-15 22:26:00,42.3,34.6,29.94,SSW,203,0.0,0.0,74,0.00,FEW,,0.01,0.0,WeatherDisplay:10.37,2013-02-16 03:26:00,
2013-02-15 22:31:00,42.2,34.2,29.94,SSW,203,0.0,0.0,73,0.00,FEW,,0.01,0.0,WeatherDisplay:10.37,2013-02-16 03:31:00,
2013-02-15 22:36:00,41.9,33.9,29.94,SSW,203,0.0,0.0,73,0.00,FEW,,0.01,0.0,WeatherDisplay:10.37,2013-02-16 03:36:00,
2013-02-15 22:41:00,41.8,34.1,29.94,SSW,203,0.0,0.0,74,0.00,FEW,,0.01,0.0,WeatherDisplay:10.37,2013-02-16 03:41:00,
2013-02-15 22:46:00,41.6,33.9,29.94,SSW,203,0.0,0.0,74,0.00,FEW,,0.01,0.0,WeatherDisplay:10.37,2013-02-16 03:46:00,
2013-02-15 22:51:00,41.5,33.8,29.94,SSW,203,0.0,0.0,74,0.00,FEW,,0.01,0.0,WeatherDisplay:10.37,2013-02-16 03:51:00,
2013-02-15 22:56:00,41.4,33.7,29.94,SSW,203,0.0,0.0,74,0.00,FEW,,0.01,0.0,WeatherDisplay:10.37,2013-02-16 03:56:00,
2013-02-15 23:01:00,41.3,33.6,29.94,SSW,203,0.0,0.0,74,0.00,FEW,,0.01,0.0,WeatherDisplay:10.37,2013-02-16 04:01:00,
2013-02-15 23:06:00,41.2,33.6,29.94,SSW,203,0.0,0.0,74,0.00,FEW,,0.01,0.0,WeatherDisplay:10.37,2013-02-16 04:06:00,
2013-02-15 23:11:00,41.2,33.5,29.93,SSW,203,0.0,0.0,74,0.00,FEW,,0.01,0.0,WeatherDisplay:10.37,2013-02-16 04:11:00,
2013-02-15 23:16:00,41.2,33.9,29.93,SSW,203,0.0,0.0,75,0.00,FEW,,0.01,0.0,WeatherDisplay:10.37,2013-02-16 04:16:00,
2013-02-15 23:21:00,41.1,34.1,29.92,SSW,203,0.0,0.0,76,0.00,FEW,,0.01,0.0,WeatherDisplay:10.37,2013-02-16 04:21:00,
2013-02-15 23:26:00,41.1,34.1,29.92,SSW,203,0.0,0.0,76,0.00,FEW,,0.01,0.0,WeatherDisplay:10.37,2013-02-16 04:26:00,
2013-02-15 23:31:00,41.0,34.0,29.92,SSW,203,0.0,2.0,76,0.00,FEW,,0.01,0.0,WeatherDisplay:10.37,2013-02-16 04:31:00,
2013-02-15 23:36:00,40.9,33.9,29.92,SSW,203,0.0,1.0,76,0.00,FEW,,0.01,0.0,WeatherDisplay:10.37,2013-02-16 04:36:00,
2013-02-15 23:41:00,40.8,34.1,29.92,SSW,203,0.0,0.0,77,0.00,FEW,,0.01,0.0,WeatherDisplay:10.37,2013-02-16 04:41:00,
2013-02-15 23:46:00,40.8,34.5,29.95,NW,306,0.0,5.0,78,0.00,FEW,,0.01,0.0,WeatherDisplay:10.37,2013-02-16 04:46:00,
2013-02-15 23:51:00,41.0,35.0,29.94,NNW,343,2.0,5.0,79,0.00,FEW,,0.01,0.0,WeatherDisplay:10.37,2013-02-16 04:51:00,
2013-02-15 23:56:00,41.4,35.4,29.95,NW,326,0.0,2.0,79,0.00,FEW,,0.01,0.0,WeatherDisplay:10.37,2013-02-16 04:56:00,